Time;durP1;ratioP1;P1;durP2;ratioP2;P2;SDS_P1;SDS_P2;PMS_P1;PMS_P2;Temp;Humidity;BMP_temperature;BMP_pressure;BME280_temperature;BME280_humidity;BME280_pressure;Samples;Min_cycle;Max_cycle;Signal;HPM_P1;HPM_P2
2021/05/30 00:00:17;;;;;;;4.82;3.42;;;;;;;13.19;63.21;100804.75;4864363;28;96936;-85
2021/05/30 00:02:43;;;;;;;6.70;3.15;;;;;;;13.20;62.89;100801.19;4863434;28;102135;-85
2021/05/30 00:05:10;;;;;;;6.53;3.83;;;;;;;13.15;63.63;100792.63;4888012;28;98297;-85
2021/05/30 00:07:36;;;;;;;4.38;3.50;;;;;;;13.13;63.57;100794.44;4870561;28;97072;-85
2021/05/30 00:10:03;;;;;;;5.68;3.53;;;;;;;13.19;63.29;100799.50;4880727;28;98342;-85
2021/05/30 00:12:29;;;;;;;4.65;3.80;;;;;;;13.15;63.62;100797.91;4862035;28;100950;-85
2021/05/30 00:14:55;;;;;;;5.15;3.45;;;;;;;13.07;63.49;100803.44;4866855;28;101272;-85
2021/05/30 00:17:20;;;;;;;4.80;3.28;;;;;;;13.07;63.77;100802.59;4866803;28;96697;-82
2021/05/30 00:19:46;;;;;;;3.72;2.92;;;;;;;13.00;64.03;100809.88;4898372;28;96886;-85
2021/05/30 00:22:12;;;;;;;8.07;3.30;;;;;;;12.91;64.42;100799.63;4882624;28;99416;-85
2021/05/30 00:24:38;;;;;;;4.32;3.55;;;;;;;13.00;64.04;100807.22;4881941;28;100092;-85
2021/05/30 00:27:04;;;;;;;5.57;2.85;;;;;;;12.94;64.17;100809.19;4867431;28;96746;-85
2021/05/30 00:29:30;;;;;;;6.65;3.33;;;;;;;12.93;63.76;100802.22;4882782;28;96958;-85
2021/05/30 00:31:56;;;;;;;6.20;3.05;;;;;;;12.93;64.23;100816.25;4867008;28;100056;-85
2021/05/30 00:34:21;;;;;;;4.28;3.08;;;;;;;12.94;64.20;100812.69;4883504;28;99129;-82
2021/05/30 00:36:47;;;;;;;8.88;3.15;;;;;;;12.96;63.80;100823.19;4867555;28;96687;-84
2021/05/30 00:39:12;;;;;;;5.45;2.67;;;;;;;12.90;64.19;100814.59;4879125;28;96803;-84
2021/05/30 00:41:38;;;;;;;5.07;3.10;;;;;;;12.96;63.88;100812.66;4864105;28;96772;-85
2021/05/30 00:44:19;;;;;;;5.90;2.90;;;;;;;12.93;64.08;100810.13;4864764;28;100564;-85
2021/05/30 00:46:45;;;;;;;5.53;3.28;;;;;;;13.01;63.71;100827.38;4881774;28;96570;-85
2021/05/30 00:49:10;;;;;;;5.45;3.22;;;;;;;13.01;63.99;100823.91;4864651;28;96994;-85
2021/05/30 00:51:36;;;;;;;5.88;3.13;;;;;;;13.01;64.42;100816.84;4848175;28;100533;-85
2021/05/30 00:54:02;;;;;;;4.38;3.00;;;;;;;12.97;64.17;100820.47;4865532;28;98869;-85
2021/05/30 00:56:27;;;;;;;4.13;2.80;;;;;;;13.01;64.19;100818.63;4871982;28;96619;-84
2021/05/30 00:58:53;;;;;;;4.38;2.83;;;;;;;13.00;64.03;100814.25;4884125;28;97053;-84
2021/05/30 01:01:19;;;;;;;2.95;2.65;;;;;;;12.97;63.91;100817.84;4882783;28;96929;-84
2021/05/30 01:03:44;;;;;;;4.53;3.20;;;;;;;12.93;64.72;100823.31;4899248;28;97349;-85
2021/05/30 01:06:11;;;;;;;6.43;3.05;;;;;;;12.91;64.37;100828.63;4884539;28;96561;-85
2021/05/30 01:08:36;;;;;;;6.05;3.10;;;;;;;12.93;64.60;100831.22;4884282;28;96908;-85
2021/05/30 01:11:02;;;;;;;4.45;3.05;;;;;;;12.89;64.63;100826.06;4883715;28;99271;-85
2021/05/30 01:13:28;;;;;;;6.00;3.38;;;;;;;12.89;64.67;100835.72;4865921;28;101044;-84
2021/05/30 01:15:54;;;;;;;5.57;3.22;;;;;;;12.83;64.72;100826.28;4869624;28;96780;-84
2021/05/30 01:18:22;;;;;;;5.32;3.28;;;;;;;12.82;64.21;100835.06;4866331;28;97167;-84
2021/05/30 01:20:49;;;;;;;6.97;3.33;;;;;;;12.87;63.85;100825.22;4879489;28;100472;-83
2021/05/30 01:23:15;;;;;;;5.80;2.97;;;;;;;12.85;64.37;100834.09;4881501;28;97163;-85
2021/05/30 01:25:42;;;;;;;3.88;2.95;;;;;;;12.79;64.48;100829.06;4865985;28;96930;-85
2021/05/30 01:28:08;;;;;;;5.40;3.33;;;;;;;12.77;64.80;100826.50;4881946;28;97048;-84
2021/05/30 01:30:34;;;;;;;6.38;3.60;;;;;;;12.78;64.42;100827.34;4880643;28;99762;-84
2021/05/30 01:33:01;;;;;;;4.63;3.60;;;;;;;12.81;65.02;100833.34;4866204;28;99898;-85
2021/05/30 01:35:27;;;;;;;5.40;3.83;;;;;;;12.78;64.25;100835.25;4865773;28;96687;-82
2021/05/30 01:37:53;;;;;;;5.88;3.50;;;;;;;12.77;64.42;100829.13;4871578;28;97000;-85
2021/05/30 01:40:19;;;;;;;7.15;3.40;;;;;;;12.73;65.16;100831.91;4869930;28;99455;-83
2021/05/30 01:42:46;;;;;;;5.43;3.85;;;;;;;12.71;64.93;100823.19;4871840;28;99339;-84
2021/05/30 01:45:12;;;;;;;6.13;3.50;;;;;;;12.75;64.75;100828.31;4873710;28;96781;-85
2021/05/30 01:47:39;;;;;;;4.82;3.47;;;;;;;12.72;65.16;100832.84;4872634;28;96882;-83
2021/05/30 01:50:07;;;;;;;6.93;4.57;;;;;;;12.68;65.16;100835.56;4871766;28;99450;-83
2021/05/30 01:52:33;;;;;;;5.53;3.80;;;;;;;12.68;65.13;100837.31;4854021;28;99524;-81
2021/05/30 01:54:58;;;;;;;8.27;4.45;;;;;;;12.62;65.43;100832.25;4869772;28;97138;-84
2021/05/30 01:57:24;;;;;;;7.53;4.20;;;;;;;12.64;65.27;100833.09;4887176;28;97198;-83
2021/05/30 01:59:50;;;;;;;7.60;3.92;;;;;;;12.62;64.95;100832.25;4882446;28;99272;-84
2021/05/30 02:02:16;;;;;;;8.50;4.25;;;;;;;12.67;65.09;100838.25;4871859;28;99150;-84
2021/05/30 02:04:44;;;;;;;7.43;4.05;;;;;;;12.61;65.53;100834.03;4904454;28;97226;-83
2021/05/30 02:07:10;;;;;;;6.25;4.30;;;;;;;12.56;65.42;100833.34;4889029;28;97156;-81
2021/05/30 02:09:37;;;;;;;5.78;4.10;;;;;;;12.58;65.07;100830.66;4886833;28;96870;-83
2021/05/30 02:12:06;;;;;;;6.03;3.55;;;;;;;12.55;65.38;100823.72;4887781;28;97034;-82
2021/05/30 02:14:32;;;;;;;8.95;3.63;;;;;;;12.61;65.03;100825.28;4889345;28;96625;-80
2021/05/30 02:16:58;;;;;;;4.57;3.70;;;;;;;12.62;64.66;100827.00;4905903;28;97059;-83
2021/05/30 02:19:23;;;;;;;5.47;3.80;;;;;;;12.57;64.67;100823.69;4867554;28;99201;-82
2021/05/30 02:21:51;;;;;;;4.88;3.70;;;;;;;12.61;64.63;100833.19;4888705;28;99722;-83
2021/05/30 02:24:19;;;;;;;4.93;3.78;;;;;;;12.54;64.63;100824.66;4906857;28;96649;-81
2021/05/30 02:26:45;;;;;;;12.25;4.75;;;;;;;12.56;64.44;100829.84;4890831;28;96649;-82
2021/05/30 02:29:33;;;;;;;5.78;3.97;;;;;;;12.58;64.22;100828.88;4890715;28;99458;-81
2021/05/30 02:31:59;;;;;;;8.13;3.72;;;;;;;12.56;64.38;100821.94;4892810;28;99951;-83
2021/05/30 02:34:24;;;;;;;6.47;3.50;;;;;;;12.58;64.14;100831.53;4895521;28;97231;-83
2021/05/30 02:36:50;;;;;;;5.93;3.47;;;;;;;12.49;63.95;100831.84;4903143;28;97090;-83
2021/05/30 02:39:16;;;;;;;4.30;3.03;;;;;;;12.48;64.57;100827.50;4887161;28;99944;-82
2021/05/30 02:41:41;;;;;;;7.40;3.88;;;;;;;12.50;64.27;100838.81;4895860;28;96960;-82
2021/05/30 02:44:07;;;;;;;5.30;3.70;;;;;;;12.48;63.66;100831.88;4887321;28;96902;-81
2021/05/30 02:46:32;;;;;;;6.82;3.70;;;;;;;12.53;63.66;100840.50;4884740;28;96992;-81
2021/05/30 02:48:58;;;;;;;5.63;3.97;;;;;;;12.53;63.56;100849.25;4887488;28;96770;-82
2021/05/30 02:51:24;;;;;;;5.00;3.38;;;;;;;12.45;63.60;100853.94;4887886;28;96640;-83
2021/05/30 02:53:49;;;;;;;4.88;3.30;;;;;;;12.44;63.55;100855.66;4903542;28;96681;-80
2021/05/30 02:56:15;;;;;;;5.38;3.78;;;;;;;12.44;63.54;100849.56;4904251;28;96924;-83
2021/05/30 02:58:40;;;;;;;4.70;3.50;;;;;;;12.44;63.73;100852.19;4871055;28;99693;-82
2021/05/30 03:01:06;;;;;;;6.07;3.42;;;;;;;12.47;63.27;100862.63;4903066;28;96809;-80
2021/05/30 03:03:31;;;;;;;5.68;3.30;;;;;;;12.40;63.08;100855.84;4886307;28;96674;-81
2021/05/30 03:05:57;;;;;;;4.05;3.15;;;;;;;12.41;63.18;100860.19;4871027;28;97145;-80
2021/05/30 03:08:22;;;;;;;4.78;3.55;;;;;;;12.36;63.35;100855.09;4888034;28;99382;-80
2021/05/30 03:10:48;;;;;;;5.85;3.80;;;;;;;12.39;63.43;100862.88;4868057;28;99121;-83
2021/05/30 03:13:14;;;;;;;5.55;3.45;;;;;;;12.44;63.60;100868.84;4868847;28;96892;-80
2021/05/30 03:15:39;;;;;;;5.90;3.58;;;;;;;12.43;63.46;100874.19;4869231;28;96824;-80
2021/05/30 03:18:06;;;;;;;4.13;2.97;;;;;;;12.39;63.79;100870.78;4853327;28;99319;-81
2021/05/30 03:20:32;;;;;;;8.60;3.97;;;;;;;12.46;63.44;100864.41;4869449;28;96664;-81
2021/05/30 03:22:58;;;;;;;4.35;3.42;;;;;;;12.46;63.53;100871.44;4868013;28;96855;-81
2021/05/30 03:25:24;;;;;;;6.05;4.40;;;;;;;12.50;64.11;100869.56;4869198;28;96952;-81
2021/05/30 03:27:49;;;;;;;6.55;3.63;;;;;;;12.43;64.16;100863.63;4867738;28;99777;-81
2021/05/30 03:30:15;;;;;;;7.28;4.20;;;;;;;12.47;63.61;100862.63;4884984;28;99636;-81
2021/05/30 03:32:41;;;;;;;4.65;3.70;;;;;;;12.40;64.19;100869.88;4884029;28;97030;-81
2021/05/30 03:35:07;;;;;;;6.20;4.55;;;;;;;12.41;64.14;100874.22;4884633;28;96775;-80
2021/05/30 03:37:33;;;;;;;6.65;4.13;;;;;;;12.44;63.87;100871.47;4883542;28;99314;-81
2021/05/30 03:40:03;;;;;;;5.90;4.00;;;;;;;12.46;63.51;100879.34;4884383;28;99155;-81
2021/05/30 03:42:31;;;;;;;5.38;3.42;;;;;;;12.44;63.55;100871.47;4883615;28;96837;-82
2021/05/30 03:44:58;;;;;;;6.53;3.78;;;;;;;12.45;63.30;100886.38;4867846;28;97157;-81
2021/05/30 03:47:24;;;;;;;6.75;3.75;;;;;;;12.44;62.98;100878.50;4867977;28;99748;-82
2021/05/30 03:49:49;;;;;;;6.38;3.80;;;;;;;12.45;62.60;100877.63;4867708;28;99179;-82
2021/05/30 03:52:15;;;;;;;4.15;3.22;;;;;;;12.46;62.06;100885.47;4884935;28;96699;-80
2021/05/30 03:54:40;;;;;;;6.65;3.60;;;;;;;12.46;61.97;100884.59;4884602;28;96639;-79
2021/05/30 03:57:06;;;;;;;5.13;3.88;;;;;;;12.45;61.95;100888.16;4851317;28;99671;-81
2021/05/30 03:59:32;;;;;;;7.55;3.65;;;;;;;12.47;62.62;100891.56;4866813;28;99112;-80
2021/05/30 04:01:57;;;;;;;7.30;3.40;;;;;;;12.43;62.11;100884.69;4867349;28;96852;-80
2021/05/30 04:04:23;;;;;;;6.28;3.75;;;;;;;12.48;62.29;100888.06;4870119;28;97502;-82
2021/05/30 04:06:49;;;;;;;5.78;3.45;;;;;;;12.44;62.34;100895.16;4882474;28;99557;-81
2021/05/30 04:09:14;;;;;;;8.82;3.60;;;;;;;12.51;61.79;100889.69;4867728;28;99450;-82
2021/05/30 04:11:40;;;;;;;4.88;4.32;;;;;;;12.50;62.25;100885.34;4866039;28;97036;-81
2021/05/30 04:14:05;;;;;;;16.60;4.40;;;;;;;12.53;62.16;100893.16;4867368;28;96956;-82
2021/05/30 04:16:31;;;;;;;8.02;4.15;;;;;;;12.54;62.54;100889.63;4870815;28;99628;-81
2021/05/30 04:18:57;;;;;;;5.75;3.88;;;;;;;12.55;63.05;100894.81;4886021;28;99277;-81
2021/05/30 04:21:22;;;;;;;5.15;3.90;;;;;;;12.58;62.32;100891.22;4885764;28;96779;-81
2021/05/30 04:23:48;;;;;;;8.55;4.10;;;;;;;12.56;62.31;100899.16;4869693;28;96981;-83
2021/05/30 04:26:13;;;;;;;7.72;4.57;;;;;;;12.58;62.59;100901.78;4896767;28;99787;-83
2021/05/30 04:28:39;;;;;;;6.18;4.30;;;;;;;12.56;62.60;100906.22;4914729;28;97010;-81
2021/05/30 04:31:05;;;;;;;10.10;4.78;;;;;;;12.64;62.42;100910.31;4913126;28;96875;-82
2021/05/30 04:33:30;;;;;;;7.55;4.53;;;;;;;12.58;62.37;100920.19;4871831;28;96930;-82
2021/05/30 04:35:56;;;;;;;7.13;4.10;;;;;;;12.65;62.40;100911.19;4871870;28;99181;-83
2021/05/30 04:38:21;;;;;;;4.78;3.78;;;;;;;12.65;62.40;100913.81;4918745;28;96793;-83
2021/05/30 04:40:48;;;;;;;6.13;4.28;;;;;;;12.67;61.96;100912.00;4885303;28;97473;-82
2021/05/30 04:43:14;;;;;;;4.95;3.78;;;;;;;12.69;62.22;100910.19;4887340;28;97084;-83
2021/05/30 04:45:40;;;;;;;4.75;4.05;;;;;;;12.71;62.23;100910.97;4891621;28;96845;-82
2021/05/30 04:48:06;;;;;;;7.15;4.30;;;;;;;12.78;62.08;100912.50;4889333;28;99356;-83
2021/05/30 04:50:31;;;;;;;5.85;4.80;;;;;;;12.79;62.37;100922.13;4872935;28;96657;-84
2021/05/30 04:52:57;;;;;;;9.20;4.30;;;;;;;12.78;62.87;100915.13;4872232;28;97235;-83
2021/05/30 04:55:24;;;;;;;6.53;4.35;;;;;;;12.79;62.27;100923.88;4888759;28;97144;-83
2021/05/30 04:57:49;;;;;;;5.93;4.00;;;;;;;12.76;62.73;100916.09;4888593;28;99811;-83
2021/05/30 05:00:15;;;;;;;8.13;4.90;;;;;;;12.85;62.91;100928.94;4891382;28;96599;-84
2021/05/30 05:02:41;;;;;;;10.85;4.38;;;;;;;12.93;62.63;100923.44;4892011;28;96823;-85
2021/05/30 05:05:10;;;;;;;5.93;4.63;;;;;;;13.19;61.90;100926.03;4883626;28;97883;-84
2021/05/30 05:07:36;;;;;;;6.28;4.30;;;;;;;13.47;61.09;100923.28;4866642;28;100295;-82
2021/05/30 05:10:03;;;;;;;5.57;4.43;;;;;;;13.94;59.56;100917.16;4881401;28;96654;-85
2021/05/30 05:12:28;;;;;;;6.68;5.05;;;;;;;14.27;58.67;100928.16;4881171;28;97534;-87
2021/05/30 05:14:54;;;;;;;5.25;4.45;;;;;;;14.64;57.76;100926.72;4880642;28;100234;-85
2021/05/30 05:17:19;;;;;;;7.45;4.18;;;;;;;14.59;57.98;100928.69;4881034;28;101822;-85
2021/05/30 05:19:45;;;;;;;7.00;4.38;;;;;;;14.46;57.76;100923.03;4864849;28;96981;-84
2021/05/30 05:22:10;;;;;;;7.85;4.55;;;;;;;14.46;58.36;100931.81;4897880;28;96892;-86
2021/05/30 05:24:36;;;;;;;4.68;4.20;;;;;;;14.59;57.42;100920.75;4880662;28;101716;-82
2021/05/30 05:27:02;;;;;;;6.20;4.95;;;;;;;15.15;56.42;100926.31;4880014;28;101441;-85
2021/05/30 05:29:27;;;;;;;4.95;3.72;;;;;;;15.22;56.17;100926.88;4864362;28;97051;-84
2021/05/30 05:31:53;;;;;;;3.67;3.15;;;;;;;15.12;54.58;100934.34;4896419;28;96925;-84
2021/05/30 05:34:19;;;;;;;4.22;3.15;;;;;;;15.13;54.44;100927.28;4880515;28;101312;-86
2021/05/30 05:36:45;;;;;;;3.80;2.90;;;;;;;15.18;54.29;100938.50;4879885;28;101698;-84
2021/05/30 05:39:11;;;;;;;7.70;3.22;;;;;;;15.21;54.03;100926.94;4880511;28;96832;-83
2021/05/30 05:41:36;;;;;;;4.35;2.90;;;;;;;15.28;53.59;100931.91;4896849;28;97032;-81
2021/05/30 05:44:02;;;;;;;3.80;2.72;;;;;;;15.42;52.78;100936.59;4864508;28;101685;-85
2021/05/30 05:46:28;;;;;;;4.75;3.08;;;;;;;15.76;52.13;100935.94;4865011;28;101182;-86
2021/05/30 05:48:53;;;;;;;6.45;4.40;;;;;;;16.69;50.31;100932.41;4879539;28;97057;-83
2021/05/30 05:51:19;;;;;;;3.92;3.15;;;;;;;16.92;50.31;100928.63;4864914;28;97065;-84
2021/05/30 05:53:44;;;;;;;2.95;2.60;;;;;;;16.96;49.95;100925.75;4879230;28;98434;-85
2021/05/30 05:56:10;;;;;;;2.85;2.22;;;;;;;16.25;51.10;100938.09;4864514;28;100464;-83
2021/05/30 05:58:35;;;;;;;5.13;3.35;;;;;;;16.66;49.68;100936.06;4896371;28;96632;-83
2021/05/30 06:01:01;;;;;;;2.85;2.20;;;;;;;15.91;50.89;100947.63;4880277;28;96640;-86
2021/05/30 06:03:27;;;;;;;4.65;3.00;;;;;;;17.77;47.65;100946.28;4880326;28;101561;-84
2021/05/30 06:05:52;;;;;;;3.97;3.22;;;;;;;19.63;44.19;100942.63;4863716;28;100323;-83
2021/05/30 06:08:18;;;;;;;3.25;2.42;;;;;;;20.26;43.17;100938.66;4880161;28;96555;-86
2021/05/30 06:10:43;;;;;;;3.85;2.55;;;;;;;20.57;42.28;100936.72;4864034;28;97078;-86
2021/05/30 06:13:10;;;;;;;4.65;2.60;;;;;;;20.40;42.48;100945.78;4879685;28;98523;-85
2021/05/30 06:15:39;;;;;;;4.15;2.70;;;;;;;20.14;41.90;100944.78;4896407;28;97441;-85
2021/05/30 06:18:12;;;;;;;4.97;3.08;;;;;;;19.91;42.89;100956.91;4895495;28;96694;-85
2021/05/30 06:20:41;;;;;;;3.10;2.78;;;;;;;20.55;41.83;100957.28;4881272;28;97107;-83
2021/05/30 06:23:07;;;;;;;7.20;3.10;;;;;;;19.14;44.44;100948.28;4879741;28;101029;-85
2021/05/30 06:25:33;;;;;;;5.50;3.10;;;;;;;20.17;43.38;100952.59;4879829;28;97337;-85
2021/05/30 06:27:59;;;;;;;3.88;2.75;;;;;;;19.67;44.05;100961.97;4895566;28;96626;-85
2021/05/30 06:30:26;;;;;;;4.18;2.95;;;;;;;18.07;46.86;100962.41;4863856;28;97355;-85
2021/05/30 06:32:52;;;;;;;4.10;2.75;;;;;;;17.58;48.28;100971.19;4878972;28;101462;-85
2021/05/30 06:35:18;;;;;;;5.00;2.70;;;;;;;16.85;49.08;100970.53;4864015;28;102014;-85
2021/05/30 06:37:44;;;;;;;2.88;2.58;;;;;;;16.63;50.13;100978.63;4862742;28;96580;-85
2021/05/30 06:40:10;;;;;;;2.90;2.60;;;;;;;16.46;50.11;100978.59;4879954;28;97013;-85
2021/05/30 06:42:36;;;;;;;4.18;2.30;;;;;;;16.45;49.77;100977.72;4895712;28;98035;-85
2021/05/30 06:45:01;;;;;;;3.40;2.63;;;;;;;17.74;47.65;100979.16;4878840;28;101326;-85
2021/05/30 06:47:27;;;;;;;3.15;2.40;;;;;;;17.71;48.14;100981.16;4889766;28;97407;-85
2021/05/30 06:49:53;;;;;;;2.83;2.30;;;;;;;17.61;47.40;100980.78;4864409;28;97178;-84
2021/05/30 06:52:18;;;;;;;4.10;2.70;;;;;;;17.16;48.40;100985.75;4905663;28;98347;-83
2021/05/30 06:54:44;;;;;;;3.33;2.28;;;;;;;16.55;49.54;100982.59;4872504;28;101182;-85
2021/05/30 06:57:09;;;;;;;8.73;2.22;;;;;;;16.12;50.71;100982.84;4893416;28;97092;-85
2021/05/30 06:59:35;;;;;;;5.07;2.20;;;;;;;15.88;51.25;100990.09;4877179;28;96953;-85
2021/05/30 07:02:01;;;;;;;2.58;2.20;;;;;;;15.95;51.25;100988.06;4861441;28;101485;-85
2021/05/30 07:04:28;;;;;;;4.47;2.33;;;;;;;15.65;51.27;100987.59;4878495;28;101162;-85
2021/05/30 07:06:54;;;;;;;3.20;2.60;;;;;;;15.65;51.38;100990.25;4877711;28;97238;-85
2021/05/30 07:09:20;;;;;;;2.97;2.30;;;;;;;15.77;51.71;100987.13;4863909;28;98127;-85
2021/05/30 07:11:45;;;;;;;2.13;1.92;;;;;;;16.29;50.19;100995.31;4895351;28;98447;-85
2021/05/30 07:14:11;;;;;;;2.58;2.05;;;;;;;16.17;50.58;100990.56;4877878;28;101454;-85
2021/05/30 07:16:37;;;;;;;3.97;1.95;;;;;;;16.03;50.85;101004.47;4860510;28;97234;-86
2021/05/30 07:19:02;;;;;;;3.97;2.35;;;;;;;15.68;51.27;100998.09;4861465;28;97581;-85
2021/05/30 07:21:28;;;;;;;5.07;2.17;;;;;;;15.50;51.83;101002.38;4894563;28;97536;-86
2021/05/30 07:23:53;;;;;;;2.55;1.85;;;;;;;15.69;51.59;101010.41;4878225;28;101353;-85
2021/05/30 07:26:19;;;;;;;3.08;2.20;;;;;;;15.79;51.56;101022.28;4862721;28;96626;-85
2021/05/30 07:28:45;;;;;;;2.90;2.60;;;;;;;15.63;51.62;101024.75;4873162;28;96832;-85
2021/05/30 07:31:12;;;;;;;4.05;2.45;;;;;;;15.43;52.15;101025.59;4860764;28;101452;-86
2021/05/30 07:33:37;;;;;;;3.50;2.47;;;;;;;15.29;52.76;101028.84;4892804;28;98360;-85
2021/05/30 07:36:05;;;;;;;6.72;2.80;;;;;;;15.16;53.29;101031.16;4877319;28;96726;-85
2021/05/30 07:38:31;;;;;;;2.72;2.10;;;;;;;15.10;53.50;101030.56;4877845;28;96941;-85
2021/05/30 07:40:56;;;;;;;4.93;2.65;;;;;;;15.11;53.90;101040.19;4877007;28;98225;-85
2021/05/30 07:43:22;;;;;;;4.78;3.30;;;;;;;14.91;54.47;101033.94;4878028;28;101198;-85
2021/05/30 07:45:49;;;;;;;4.65;3.00;;;;;;;14.86;54.55;101041.19;4863069;28;96692;-86
2021/05/30 07:48:14;;;;;;;3.75;2.97;;;;;;;14.78;55.12;101043.28;4875941;28;97159;-86
2021/05/30 07:50:40;;;;;;;5.68;2.75;;;;;;;14.68;55.16;101039.28;4874203;28;101772;-84
2021/05/30 07:53:06;;;;;;;5.20;3.00;;;;;;;14.65;55.70;101048.19;4878176;28;101698;-86
2021/05/30 07:55:32;;;;;;;4.40;3.22;;;;;;;14.60;55.85;101051.94;4879157;28;96967;-85
2021/05/30 07:57:57;;;;;;;5.38;2.83;;;;;;;14.38;56.59;101050.09;4893394;28;97462;-86
2021/05/30 08:00:24;;;;;;;6.38;3.53;;;;;;;14.28;57.29;101054.00;4881828;28;100385;-84
2021/05/30 08:02:52;;;;;;;5.53;3.00;;;;;;;14.32;56.60;101054.75;4876663;28;100314;-84
2021/05/30 08:05:19;;;;;;;4.15;3.22;;;;;;;14.47;56.64;101056.81;4844032;28;97597;-83
2021/05/30 08:07:46;;;;;;;5.97;2.97;;;;;;;14.41;57.03;101049.97;4878258;28;96918;-85
2021/05/30 08:10:12;;;;;;;4.47;3.20;;;;;;;14.39;57.20;101057.09;4854654;28;101801;-83
2021/05/30 08:12:37;;;;;;;3.72;3.15;;;;;;;14.31;57.04;101059.19;4888885;28;98894;-83
2021/05/30 08:15:05;;;;;;;3.70;2.90;;;;;;;14.21;57.50;101058.66;4869055;28;97349;-84
2021/05/30 08:17:31;;;;;;;5.32;3.38;;;;;;;14.22;57.26;101056.88;4879859;28;96799;-83
2021/05/30 08:19:57;;;;;;;2.92;2.63;;;;;;;14.27;57.06;101060.19;4878731;28;98255;-84
2021/05/30 08:22:22;;;;;;;3.38;3.00;;;;;;;14.24;57.16;101055.03;4895428;28;97942;-82
2021/05/30 08:24:48;;;;;;;5.38;3.20;;;;;;;14.15;57.51;101071.22;4854882;28;97425;-84
2021/05/30 08:27:14;;;;;;;8.30;3.40;;;;;;;14.12;57.05;101069.56;4858535;28;96896;-84
2021/05/30 08:29:40;;;;;;;6.18;3.33;;;;;;;14.06;57.83;101069.78;4877070;28;101075;-83
2021/05/30 08:32:07;;;;;;;4.18;3.10;;;;;;;14.13;57.59;101070.41;4873973;28;100491;-84
2021/05/30 08:34:33;;;;;;;3.42;3.13;;;;;;;14.09;58.05;101076.72;4876612;28;97323;-82
2021/05/30 08:36:58;;;;;;;4.28;3.55;;;;;;;14.08;57.97;101085.56;4875386;28;96973;-84
2021/05/30 08:39:24;;;;;;;3.85;3.03;;;;;;;14.15;57.61;101077.38;4876817;28;98405;-84
2021/05/30 08:41:49;;;;;;;6.15;3.08;;;;;;;14.17;57.60;101077.31;4876270;28;101434;-83
2021/05/30 08:44:15;;;;;;;3.28;2.97;;;;;;;14.33;57.74;101075.81;4874885;28;98045;-83
2021/05/30 08:46:42;;;;;;;4.90;3.13;;;;;;;14.42;57.79;101083.38;4877725;28;97450;-81
2021/05/30 08:49:08;;;;;;;5.22;3.05;;;;;;;14.35;57.66;101079.25;4893977;28;97874;-82
2021/05/30 08:51:38;;;;;;;5.80;2.55;;;;;;;14.33;57.35;101088.16;4883912;28;97578;-78
2021/05/30 08:54:12;;;;;;;3.55;2.72;;;;;;;14.40;57.00;101085.25;4891061;28;97200;-81
2021/05/30 08:56:39;;;;;;;3.40;2.85;;;;;;;14.48;57.33;101085.78;4875545;28;97137;-85
2021/05/30 08:59:28;;;;;;;4.05;3.40;;;;;;;14.63;57.23;101080.88;4878583;28;101485;-86
2021/05/30 09:01:55;;;;;;;3.47;2.63;;;;;;;14.66;57.02;101080.75;4875725;28;98480;-82
2021/05/30 09:04:41;;;;;;;3.65;2.65;;;;;;;14.69;56.72;101089.44;4877197;28;97247;-81
2021/05/30 09:07:08;;;;;;;4.05;3.10;;;;;;;14.70;56.87;101092.94;4860447;28;97370;-80
2021/05/30 09:09:41;;;;;;;3.58;2.85;;;;;;;14.82;57.07;101083.66;4858848;28;101781;-81
2021/05/30 09:12:19;;;;;;;3.95;3.08;;;;;;;14.88;56.94;101092.22;4861618;28;100753;-85
2021/05/30 09:14:47;;;;;;;5.63;3.13;;;;;;;14.88;56.79;101086.06;4871605;28;96831;-81
2021/05/30 09:17:13;;;;;;;5.75;3.50;;;;;;;14.80;56.74;101090.78;4873755;28;97502;-82
2021/05/30 09:19:47;;;;;;;3.90;3.28;;;;;;;14.73;57.18;101097.25;4873508;28;100098;-83
2021/05/30 09:22:27;;;;;;;4.97;3.05;;;;;;;14.75;56.94;101098.91;4858285;28;101625;-82
2021/05/30 09:25:09;;;;;;;4.37;3.60;;;;;;;14.72;57.47;101088.47;4893429;28;97603;-82
2021/05/30 09:27:36;;;;;;;3.72;3.22;;;;;;;14.74;57.77;101086.59;4893654;28;96897;-82
2021/05/30 09:30:17;;;;;;;7.28;3.50;;;;;;;14.85;57.29;101096.75;4873835;28;101898;-82
2021/05/30 09:33:10;;;;;;;5.90;3.77;;;;;;;15.02;56.98;101093.44;4871710;28;100581;-79
2021/05/30 09:35:44;;;;;;;4.50;3.50;;;;;;;15.35;56.96;101085.91;4874827;28;96896;-83
2021/05/30 09:38:17;;;;;;;5.18;3.58;;;;;;;15.53;55.73;101087.81;4861906;28;96895;-82
2021/05/30 09:40:46;;;;;;;5.45;3.63;;;;;;;15.64;55.96;101095.25;4878464;28;101158;-80
2021/05/30 09:43:20;;;;;;;5.80;3.80;;;;;;;15.82;55.75;101089.22;4878814;28;101937;-82
2021/05/30 09:46:08;;;;;;;5.55;3.72;;;;;;;15.83;55.29;101084.78;4894464;28;97231;-82
2021/05/30 09:48:41;;;;;;;8.13;3.97;;;;;;;15.98;54.89;101094.69;4894645;28;97131;-82
2021/05/30 09:51:28;;;;;;;6.95;4.55;;;;;;;15.97;54.85;101095.63;4894340;28;98038;-83
2021/05/30 09:54:04;;;;;;;5.80;4.45;;;;;;;16.21;54.98;101095.47;4886787;28;98524;-82
2021/05/30 09:56:46;;;;;;;7.75;4.00;;;;;;;16.19;54.41;101095.50;4887140;28;96800;-82
2021/05/30 09:59:13;;;;;;;4.35;3.75;;;;;;;16.05;54.41;101097.91;4885755;28;99051;-82
2021/05/30 10:01:59;;;;;;;7.20;4.60;;;;;;;15.95;54.91;101104.56;4894212;28;98443;-83
2021/05/30 10:04:30;;;;;;;4.88;3.70;;;;;;;15.83;55.12;101095.38;4862446;28;101475;-82
2021/05/30 10:06:57;;;;;;;6.47;3.45;;;;;;;15.84;55.33;101089.13;4877466;28;96798;-82
2021/05/30 10:09:23;;;;;;;3.95;3.53;;;;;;;15.94;55.49;101095.75;4893807;28;96926;-82
2021/05/30 10:11:49;;;;;;;3.88;3.03;;;;;;;16.19;54.58;101092.88;4875291;28;101651;-82
2021/05/30 10:14:15;;;;;;;4.78;3.45;;;;;;;16.43;53.36;101095.31;4892894;28;98160;-82
2021/05/30 10:16:41;;;;;;;3.90;2.97;;;;;;;16.39;53.50;101096.41;4860577;28;96754;-82
2021/05/30 10:19:19;;;;;;;5.10;3.70;;;;;;;16.15;53.48;101093.94;4890491;28;96815;-82
2021/05/30 10:21:51;;;;;;;4.40;2.88;;;;;;;16.23;53.93;101097.13;4875440;28;99038;-82
2021/05/30 10:24:17;;;;;;;3.97;3.30;;;;;;;16.25;54.06;101092.59;4875548;28;101464;-82
2021/05/30 10:26:43;;;;;;;4.85;3.10;;;;;;;16.28;53.86;101102.19;4858508;28;97033;-82
2021/05/30 10:29:14;;;;;;;3.83;2.92;;;;;;;16.22;54.39;101094.50;4875308;28;96989;-81
2021/05/30 10:31:42;;;;;;;5.75;3.42;;;;;;;16.45;53.85;101094.31;4868802;28;101833;-81
2021/05/30 10:34:11;;;;;;;3.88;3.20;;;;;;;16.91;52.79;101091.34;4890414;28;98018;-82
2021/05/30 10:36:38;;;;;;;6.10;3.47;;;;;;;17.23;52.26;101094.22;4890183;28;96782;-81
2021/05/30 10:39:04;;;;;;;5.43;3.30;;;;;;;17.50;51.70;101090.16;4860549;28;96982;-81
2021/05/30 10:41:30;;;;;;;3.50;2.85;;;;;;;17.72;51.08;101084.63;4891402;28;98764;-82
2021/05/30 10:43:55;;;;;;;3.85;3.25;;;;;;;17.78;51.13;101078.16;4890129;28;98466;-81
2021/05/30 10:46:23;;;;;;;4.47;2.90;;;;;;;17.82;51.48;101087.69;4886008;28;98352;-83
2021/05/30 10:49:07;;;;;;;4.03;3.63;;;;;;;17.57;52.18;101080.09;4879118;28;97317;-82
2021/05/30 10:51:42;;;;;;;4.13;3.25;;;;;;;17.60;51.68;101080.81;4875473;28;100989;-81
2021/05/30 10:54:11;;;;;;;3.80;3.05;;;;;;;17.62;52.58;101070.94;4859987;28;101663;-82
2021/05/30 10:56:39;;;;;;;3.67;3.20;;;;;;;17.75;51.90;101086.25;4892690;28;96788;-82
2021/05/30 10:59:11;;;;;;;3.15;2.35;;;;;;;17.94;51.41;101075.56;4891972;28;96887;-82
2021/05/30 11:01:48;;;;;;;3.65;2.67;;;;;;;18.16;50.82;101076.13;4893902;28;98613;-82
2021/05/30 11:04:29;;;;;;;3.70;2.67;;;;;;;18.35;50.73;101072.47;4892035;28;100320;-82
2021/05/30 11:07:20;;;;;;;3.78;2.60;;;;;;;18.62;49.91;101068.31;4876074;28;97288;-81
2021/05/30 11:09:49;;;;;;;3.83;2.58;;;;;;;18.57;49.20;101067.69;4886952;28;97917;-81
2021/05/30 11:12:26;;;;;;;6.60;2.60;;;;;;;18.36;49.56;101068.91;4872003;28;98488;-83
2021/05/30 11:15:07;;;;;;;3.70;2.78;;;;;;;17.97;50.18;101076.25;4887627;28;98009;-81
2021/05/30 11:17:39;;;;;;;3.28;2.83;;;;;;;17.75;49.84;101070.34;4890159;28;97396;-82
2021/05/30 11:20:07;;;;;;;3.55;2.60;;;;;;;17.95;49.95;101072.84;4889114;28;96894;-81
2021/05/30 11:23:15;;;;;;;3.53;2.45;;;;;;;17.88;49.87;101069.63;4860164;28;101758;-81
2021/05/30 11:25:48;;;;;;;4.13;2.33;;;;;;;17.84;49.57;101070.72;4872600;28;98603;-81